Accueil
METAR-TAF:

METAR-TAF

Aéroports :

Aéroport de Saint-Jean

Saint-Jean, Nouveau-Brunswick, Canada

latitude: 45-20N, longitude: 065-53W, altitude: 103 m

Observation

Le bulletin a été fait il y a 48 minutes, à 09:00 UTC
Vent 5 kt de nord-ouest
Température -11°C
Humidité 78%
Pression 1027 hPa
Visibilité: 24.1 km
Ciel clair

METAR: CYSJ 230900Z 32005KT 15SM SKC M11/M14 A3034 RMK SLP283

Heure: 05:48 (09:48 UTC)

Prévision

Le bulletin a été fait il y a 4 heures et 9 minutes, à 05:39 UTC
Prévision valable du 23 à 06 UTC au 23 à 18 UTC
Vent 3 kt de direction variable
Visibilité: 10 km
Ciel clair
Evoluant progressivement
du 23 à 13 UTC au 23 à 15 UTC
Vent 10 kt de nord/nord-ouest

TAF: CYSJ 230539Z 2306/2318 VRB03KT P6SM SKC BECMG 2313/2315 33010KT RMK NXT FCST BY 231200Z

Observations et prévisions météorologiques de plus de 4000 aéroports (messages METAR et TAF).

Les stations disponibles sont représentées par des disques jaunes et rouges sur la carte.

Passer la souris dessus pour voir le nom de la station.

Cliquer dessus pour voir les observations et prévisions météorologiques.

Pour changer de carte: cliquez sur les boutons verts avec une croix noire pour zoomer, sur le bouton vert avec un tiret pour effectuer un zoom arrière, ou sur les flèches vertes pour les cartes adjacentes.


METAR-TAF: